Time;durP1;ratioP1;P1;durP2;ratioP2;P2;SDS_P1;SDS_P2;PMS_P1;PMS_P2;Temp;Humidity;BMP_temperature;BMP_pressure;BME280_temperature;BME280_humidity;BME280_pressure;Samples;Min_cycle;Max_cycle;Signal;HPM_P1;HPM_P2
2023/10/09 00:00:30;;;;;;;17.48;6.15;;;19.70;57.50;;;;;;5018973;28;20053;-48
2023/10/09 00:02:48;;;;;;;15.13;5.97;;;19.70;57.50;;;;;;5018798;28;20433;-46
2023/10/09 00:05:23;;;;;;;17.80;6.53;;;19.70;57.50;;;;;;5018647;28;20053;-50
2023/10/09 00:07:53;;;;;;;12.88;6.25;;;19.70;57.50;;;;;;5020044;28;20400;-51
2023/10/09 00:10:21;;;;;;;12.95;5.65;;;19.70;57.50;;;;;;5018074;28;20049;-50
2023/10/09 00:12:48;;;;;;;15.23;6.13;;;19.70;57.50;;;;;;5019624;28;20053;-50
2023/10/09 00:15:17;;;;;;;14.70;6.05;;;19.70;57.50;;;;;;5019968;28;20064;-49
2023/10/09 00:17:46;;;;;;;16.13;6.20;;;19.70;57.50;;;;;;5017667;28;20053;-49
2023/10/09 00:20:30;;;;;;;10.70;5.63;;;19.80;57.50;;;;;;5018446;28;20050;-47
2023/10/09 00:22:58;;;;;;;11.73;5.97;;;19.70;57.50;;;;;;5017063;28;20060;-48
2023/10/09 00:25:30;;;;;;;14.52;6.53;;;19.70;57.40;;;;;;5020509;28;20045;-50
2023/10/09 00:27:59;;;;;;;12.50;6.57;;;19.80;57.30;;;;;;5020293;28;20202;-48
2023/10/09 00:30:30;;;;;;;14.68;6.38;;;19.80;57.30;;;;;;5014039;28;20058;-47
2023/10/09 00:33:00;;;;;;;11.98;5.72;;;19.80;57.10;;;;;;5016544;28;20069;-51
2023/10/09 00:35:39;;;;;;;19.35;6.47;;;19.80;57.10;;;;;;5019457;28;20421;-49
2023/10/09 00:38:15;;;;;;;20.13;5.78;;;19.80;57.00;;;;;;5018832;28;20068;-47
2023/10/09 00:40:46;;;;;;;13.90;6.47;;;19.80;57.00;;;;;;5018747;28;20046;-48
2023/10/09 00:43:14;;;;;;;12.05;5.90;;;19.80;56.90;;;;;;5017934;28;20049;-44
2023/10/09 00:45:44;;;;;;;19.33;6.20;;;19.80;56.80;;;;;;5023018;28;20057;-49
2023/10/09 00:48:22;;;;;;;15.63;7.03;;;19.80;56.70;;;;;;5022376;28;20057;-48
2023/10/09 00:50:52;;;;;;;17.80;6.43;;;19.80;56.60;;;;;;5021985;28;20041;-51
2023/10/09 00:53:30;;;;;;;12.20;5.57;;;19.80;56.50;;;;;;5022453;28;20516;-48
2023/10/09 00:56:03;;;;;;;13.30;5.88;;;19.80;56.40;;;;;;5021969;28;20060;-47
2023/10/09 00:58:35;;;;;;;11.88;6.15;;;19.80;56.10;;;;;;5024163;28;20058;-48
2023/10/09 01:01:08;;;;;;;11.63;5.47;;;19.80;56.00;;;;;;5022543;28;20050;-48
2023/10/09 01:03:40;;;;;;;13.45;5.78;;;19.80;55.90;;;;;;5021980;28;20053;-45
2023/10/09 01:06:17;;;;;;;10.13;4.88;;;19.80;55.90;;;;;;5023027;28;20053;-47
2023/10/09 01:08:55;;;;;;;10.77;5.68;;;19.80;55.90;;;;;;5023993;28;20041;-49
2023/10/09 01:11:23;;;;;;;12.55;5.90;;;19.80;55.80;;;;;;5021559;28;20053;-46
2023/10/09 01:13:59;;;;;;;12.30;5.85;;;19.90;55.70;;;;;;5022538;28;20060;-47
2023/10/09 01:16:31;;;;;;;11.88;5.57;;;19.90;55.70;;;;;;5022445;28;20278;-50
2023/10/09 01:19:00;;;;;;;10.60;5.45;;;19.90;55.50;;;;;;5022471;28;20053;-44
2023/10/09 01:21:31;;;;;;;11.00;5.35;;;19.90;55.50;;;;;;5018116;28;20493;-48
2023/10/09 01:24:03;;;;;;;11.70;6.05;;;19.90;55.50;;;;;;5022063;28;20053;-45
2023/10/09 01:26:34;;;;;;;11.30;5.57;;;19.90;55.30;;;;;;5022292;28;20069;-45
2023/10/09 01:29:02;;;;;;;12.13;5.72;;;19.90;55.20;;;;;;5022966;28;20060;-46
2023/10/09 01:31:37;;;;;;;14.38;5.60;;;19.90;55.30;;;;;;5019572;28;20061;-46
2023/10/09 01:34:09;;;;;;;13.32;5.35;;;19.90;55.20;;;;;;5023461;28;20520;-48
2023/10/09 01:36:39;;;;;;;10.48;5.30;;;19.90;55.00;;;;;;5021356;28;20501;-50
2023/10/09 01:39:10;;;;;;;11.73;5.70;;;19.90;55.00;;;;;;5021250;28;20054;-49
2023/10/09 01:41:46;;;;;;;16.05;6.15;;;19.90;54.80;;;;;;5021718;28;20054;-46
2023/10/09 01:44:15;;;;;;;12.10;5.43;;;19.90;54.90;;;;;;5022697;28;20069;-47
2023/10/09 01:46:45;;;;;;;10.27;5.30;;;19.90;54.80;;;;;;5020639;28;20064;-49
2023/10/09 01:49:17;;;;;;;9.60;5.00;;;19.90;54.60;;;;;;5021713;28;20056;-47
2023/10/09 01:51:45;;;;;;;14.75;5.55;;;19.90;54.60;;;;;;5019892;28;20049;-46
2023/10/09 01:54:33;;;;;;;9.73;5.10;;;19.90;54.60;;;;;;5022579;28;20080;-45
2023/10/09 01:57:05;;;;;;;11.82;5.07;;;19.90;54.70;;;;;;5021855;28;20497;-46
2023/10/09 01:59:37;;;;;;;8.32;4.30;;;19.90;54.80;;;;;;5022664;28;20057;-46
2023/10/09 02:02:25;;;;;;;14.18;5.78;;;19.90;54.90;;;;;;5019856;28;20042;-49
2023/10/09 02:04:54;;;;;;;9.00;5.05;;;19.90;54.90;;;;;;5022664;28;20053;-46
2023/10/09 02:07:27;;;;;;;8.38;4.68;;;20.00;54.90;;;;;;5022124;28;20054;-49
2023/10/09 02:09:57;;;;;;;11.77;5.13;;;20.00;54.90;;;;;;5023644;28;20061;-49
2023/10/09 02:12:33;;;;;;;13.77;5.53;;;20.00;55.10;;;;;;5015665;28;20057;-45
2023/10/09 02:15:06;;;;;;;11.57;5.50;;;20.00;55.20;;;;;;5022017;28;20068;-48
2023/10/09 02:17:34;;;;;;;10.48;5.07;;;20.00;55.20;;;;;;5018080;28;20061;-49
2023/10/09 02:20:16;;;;;;;11.80;5.47;;;20.00;55.00;;;;;;5017623;28;20536;-50
2023/10/09 02:22:43;;;;;;;9.77;5.13;;;20.00;54.80;;;;;;5022291;28;20053;-49
2023/10/09 02:25:12;;;;;;;15.45;5.82;;;20.00;54.70;;;;;;5021499;28;20057;-48
2023/10/09 02:27:52;;;;;;;11.68;5.25;;;19.90;54.80;;;;;;5021998;28;20057;-48
2023/10/09 02:30:26;;;;;;;13.02;5.40;;;19.90;54.50;;;;;;5019714;28;20053;-48
2023/10/09 02:33:06;;;;;;;;;;;19.90;54.40;;;;;;5020058;28;20057;-46
2023/10/09 02:35:38;;;;;;;10.82;5.38;;;19.90;54.60;;;;;;5021304;28;19925;-51
2023/10/09 02:38:14;;;;;;;10.05;4.70;;;19.90;54.30;;;;;;5017412;28;20064;-49
2023/10/09 02:41:04;;;;;;;10.40;5.40;;;19.90;54.70;;;;;;5020062;28;20053;-46
2023/10/09 02:43:34;;;;;;;10.23;5.05;;;19.80;54.40;;;;;;5021956;28;20060;-48
2023/10/09 02:46:13;;;;;;;8.73;4.78;;;19.80;54.50;;;;;;5020970;28;20488;-49
2023/10/09 02:48:42;;;;;;;11.30;4.88;;;19.80;54.60;;;;;;5020672;28;20057;-46
2023/10/09 02:51:22;;;;;;;11.60;5.13;;;19.80;54.80;;;;;;5019472;28;20064;-50
2023/10/09 02:53:51;;;;;;;14.40;5.53;;;19.80;54.80;;;;;;5020432;28;20266;-47
2023/10/09 02:56:24;;;;;;;11.48;5.60;;;19.80;55.00;;;;;;5020724;28;20049;-50
2023/10/09 02:58:51;;;;;;;10.65;5.45;;;19.80;55.00;;;;;;5021594;28;20064;-49
2023/10/09 03:01:19;;;;;;;9.35;5.07;;;19.80;55.10;;;;;;5019213;28;20064;-50
2023/10/09 03:03:47;;;;;;;9.23;4.82;;;19.80;55.20;;;;;;5019048;28;20539;-48
2023/10/09 03:06:19;;;;;;;9.68;4.95;;;19.90;55.50;;;;;;5019493;28;20626;-45
2023/10/09 03:08:47;;;;;;;9.57;5.00;;;19.90;55.50;;;;;;5019608;28;20072;-49
2023/10/09 03:11:15;;;;;;;6.88;4.38;;;19.90;55.30;;;;;;5019021;28;20041;-49
2023/10/09 03:13:44;;;;;;;9.50;4.78;;;19.90;55.30;;;;;;5004038;28;20070;-45
2023/10/09 03:16:15;;;;;;;11.57;4.90;;;19.90;55.40;;;;;;5000157;28;20054;-50
2023/10/09 03:18:43;;;;;;;10.05;5.13;;;19.80;55.40;;;;;;4999293;28;20068;-48
2023/10/09 03:21:10;;;;;;;10.57;5.20;;;19.80;55.40;;;;;;4999302;28;20064;-49
2023/10/09 03:23:38;;;;;;;14.50;4.97;;;19.80;55.50;;;;;;4999493;28;20057;-47
2023/10/09 03:26:05;;;;;;;13.43;5.35;;;19.80;55.50;;;;;;5000365;28;20509;-50
2023/10/09 03:28:33;;;;;;;8.88;4.72;;;19.80;55.60;;;;;;5001277;28;20080;-48
2023/10/09 03:31:02;;;;;;;12.70;5.50;;;19.80;55.70;;;;;;4999153;28;20064;-46
2023/10/09 03:33:32;;;;;;;11.55;5.00;;;19.80;55.80;;;;;;4998663;28;20042;-46
2023/10/09 03:36:00;;;;;;;8.77;4.45;;;19.80;55.90;;;;;;4999028;28;20045;-51
2023/10/09 03:38:34;;;;;;;10.32;4.95;;;19.80;55.90;;;;;;4998463;28;20057;-48
2023/10/09 03:41:05;;;;;;;9.70;4.82;;;19.70;56.00;;;;;;4998502;28;20066;-45
2023/10/09 03:43:37;;;;;;;10.20;4.95;;;19.80;56.10;;;;;;4999321;28;20061;-46
2023/10/09 03:46:14;;;;;;;11.38;4.65;;;19.80;56.10;;;;;;4997025;28;20049;-46
2023/10/09 03:48:43;;;;;;;9.27;3.97;;;19.80;56.10;;;;;;5000682;28;20049;-47
2023/10/09 03:51:15;;;;;;;9.30;4.72;;;19.80;56.10;;;;;;4999216;28;20417;-48
2023/10/09 03:53:42;;;;;;;9.23;4.32;;;19.80;56.10;;;;;;5000949;28;20068;-48
2023/10/09 03:56:12;;;;;;;10.93;4.90;;;19.80;56.10;;;;;;4999900;28;20049;-49
2023/10/09 03:58:42;;;;;;;10.27;4.78;;;19.80;56.10;;;;;;4999972;28;20055;-50
2023/10/09 04:01:22;;;;;;;13.98;4.97;;;19.80;56.10;;;;;;4998034;28;20056;-47
2023/10/09 04:03:49;;;;;;;12.27;5.43;;;19.80;56.10;;;;;;4999248;28;20061;-46
2023/10/09 04:06:18;;;;;;;11.10;5.03;;;19.80;56.10;;;;;;4998280;28;20054;-44
2023/10/09 04:08:50;;;;;;;14.57;5.00;;;19.90;56.20;;;;;;4998413;28;20521;-47
2023/10/09 04:11:22;;;;;;;8.38;4.78;;;19.90;56.20;;;;;;4999869;28;20421;-45
2023/10/09 04:13:51;;;;;;;9.60;5.25;;;19.90;56.30;;;;;;4998943;28;20049;-48
2023/10/09 04:16:33;;;;;;;9.40;4.95;;;19.90;56.20;;;;;;4998680;28;20050;-49
2023/10/09 04:19:06;;;;;;;13.73;4.88;;;19.90;56.20;;;;;;4994565;28;20062;-47
2023/10/09 04:21:34;;;;;;;18.15;8.02;;;20.00;56.30;;;;;;4998286;28;20391;-50
2023/10/09 04:24:22;;;;;;;22.88;11.05;;;20.00;56.30;;;;;;4996544;28;20069;-49
2023/10/09 04:26:55;;;;;;;27.27;13.75;;;20.00;56.20;;;;;;5000043;28;20050;-47
2023/10/09 04:29:27;;;;;;;21.75;11.93;;;20.00;56.20;;;;;;4999621;28;20058;-46
2023/10/09 04:32:00;;;;;;;12.32;6.32;;;20.00;56.20;;;;;;4995476;28;20050;-47
2023/10/09 04:34:34;;;;;;;11.70;5.25;;;20.00;56.10;;;;;;4997913;28;20056;-47
2023/10/09 04:37:19;;;;;;;11.70;5.88;;;20.00;56.20;;;;;;4998124;28;20080;-47
2023/10/09 04:40:00;;;;;;;125.20;57.63;;;20.00;56.20;;;;;;4998546;28;21397;-50
2023/10/09 04:42:36;;;;;;;56.17;27.85;;;20.00;56.20;;;;;;5000486;28;20057;-48
2023/10/09 04:45:59;;;;;;;19.02;9.93;;;20.00;56.20;;;;;;4999437;28;20053;-47
2023/10/09 04:48:09;;;;;;;13.77;5.65;;;20.00;56.10;;;;;;4997241;28;20069;-46
2023/10/09 04:53:36;;;;;;;9.77;5.18;;;20.00;56.10;;;;;;4993253;28;20518;-45
2023/10/09 04:56:15;;;;;;;8.07;4.38;;;20.00;56.20;;;;;;4997198;28;20413;-46
2023/10/09 04:58:46;;;;;;;12.88;5.35;;;20.00;56.20;;;;;;5002229;28;20065;-49
2023/10/09 05:01:16;;;;;;;9.68;5.00;;;20.00;56.30;;;;;;5001189;28;20049;-49
2023/10/09 05:03:44;;;;;;;8.70;5.00;;;20.00;56.80;;;;;;4998929;28;20054;-48
2023/10/09 05:06:32;;;;;;;13.32;7.57;;;20.00;56.30;;;;;;4993367;28;21016;-46
2023/10/09 05:09:08;;;;;;;37.13;18.02;;;20.00;56.30;;;;;;4996731;28;20049;-46
2023/10/09 05:14:19;;;;;;;31.65;15.57;;;20.00;56.20;;;;;;4998560;28;20752;-48
2023/10/09 05:16:54;;;;;;;19.25;9.75;;;20.00;56.20;;;;;;4998331;28;20422;-48
2023/10/09 05:19:42;;;;;;;17.20;7.35;;;20.00;56.20;;;;;;5000587;28;20053;-46
2023/10/09 05:22:29;;;;;;;14.65;6.15;;;20.00;56.30;;;;;;5000193;28;20061;-51
2023/10/09 05:24:58;;;;;;;13.35;5.25;;;20.00;56.30;;;;;;5001351;28;20054;-48
2023/10/09 05:30:24;;;;;;;10.88;5.20;;;20.00;56.10;;;;;;5000551;28;20049;-47
2023/10/09 05:32:55;;;;;;;11.25;5.28;;;20.00;56.00;;;;;;5003691;28;20482;-50
2023/10/09 05:35:39;;;;;;;13.45;4.60;;;20.00;56.10;;;;;;5003510;28;20057;-48
2023/10/09 05:38:14;;;;;;;;;;;20.00;56.10;;;;;;5004640;28;20057;-45
2023/10/09 05:40:43;;;;;;;9.20;5.10;;;20.00;56.10;;;;;;5005377;28;19917;-48
2023/10/09 05:44:22;;;;;;;11.20;5.38;;;20.00;56.00;;;;;;5004642;28;20050;-47
2023/10/09 05:46:09;;;;;;;11.80;5.32;;;20.00;56.00;;;;;;5004559;28;20062;-44
2023/10/09 05:51:42;;;;;;;13.27;4.90;;;20.00;56.10;;;;;;5010312;28;20057;-46
2023/10/09 05:54:23;;;;;;;12.15;5.47;;;20.00;56.10;;;;;;5003974;28;20057;-47
2023/10/09 06:05:40;;;;;;;13.68;5.28;;;19.90;56.50;;;;;;5009406;28;20065;-46
2023/10/09 06:08:12;;;;;;;9.93;5.05;;;19.90;56.60;;;;;;5003549;28;20498;-48
2023/10/09 06:10:42;;;;;;;13.63;4.97;;;19.90;56.60;;;;;;5004319;28;20054;-45
2023/10/09 06:18:34;;;;;;;13.85;5.30;;;19.90;56.50;;;;;;5002742;28;20045;-49
2023/10/09 06:24:14;;;;;;;8.90;4.35;;;19.90;56.50;;;;;;4988700;28;20046;-46
2023/10/09 06:26:51;;;;;;;11.48;5.30;;;19.90;56.70;;;;;;5003744;28;20050;-46
2023/10/09 06:29:35;;;;;;;15.70;5.00;;;19.80;56.40;;;;;;5003042;28;20410;-43
2023/10/09 06:32:34;;;;;;;15.40;4.93;;;19.90;56.30;;;;;;5003297;28;20060;-44
2023/10/09 06:35:18;;;;;;;18.70;5.45;;;19.80;56.10;;;;;;5003558;28;20497;-46
2023/10/09 06:43:27;;;;;;;14.55;5.13;;;19.80;56.10;;;;;;5009232;28;20061;-43
2023/10/09 06:45:57;;;;;;;9.82;4.80;;;19.90;56.70;;;;;;5003887;28;20402;-48
2023/10/09 06:48:55;;;;;;;10.50;4.82;;;19.90;56.30;;;;;;5003677;28;20058;-43
2023/10/09 06:51:40;;;;;;;9.63;4.30;;;19.90;56.20;;;;;;5003359;28;20049;-48
2023/10/09 06:54:14;;;;;;;9.23;4.50;;;19.90;56.20;;;;;;5003434;28;20050;-46
2023/10/09 06:59:41;;;;;;;9.18;4.95;;;20.00;56.30;;;;;;5009432;28;20061;-46
2023/10/09 07:02:26;;;;;;;8.35;4.80;;;20.00;56.30;;;;;;5003088;28;20509;-48
2023/10/09 07:04:55;;;;;;;12.98;4.78;;;20.00;56.30;;;;;;5003740;28;20058;-47
2023/10/09 07:07:24;;;;;;;10.90;4.72;;;20.00;56.70;;;;;;5002870;28;20058;-48
2023/10/09 07:12:44;;;;;;;9.57;4.95;;;20.10;56.10;;;;;;5008710;28;20417;-48
2023/10/09 07:18:18;;;;;;;8.82;4.75;;;20.10;56.10;;;;;;5002750;28;20065;-49
2023/10/09 07:20:45;;;;;;;7.00;4.13;;;20.20;56.20;;;;;;5001915;28;20414;-48
2023/10/09 07:23:15;;;;;;;10.52;4.70;;;20.20;56.20;;;;;;5003541;28;20046;-44
2023/10/09 07:25:54;;;;;;;12.63;4.82;;;20.30;56.30;;;;;;5004276;28;20057;-47
2023/10/09 07:28:45;;;;;;;9.55;4.45;;;20.30;56.80;;;;;;5002592;28;20053;-48
2023/10/09 07:31:39;;;;;;;10.05;4.30;;;20.30;57.00;;;;;;4999686;28;20069;-48
2023/10/09 07:34:30;;;;;;;9.93;4.60;;;20.30;57.10;;;;;;5001325;28;20046;-47
2023/10/09 07:36:57;;;;;;;7.65;4.55;;;20.30;57.20;;;;;;5001369;28;20054;-45
2023/10/09 07:39:34;;;;;;;11.07;4.43;;;20.30;57.20;;;;;;5002756;28;20054;-44
2023/10/09 07:42:15;;;;;;;9.90;4.10;;;20.30;57.30;;;;;;5002447;28;20050;-47
2023/10/09 07:44:52;;;;;;;9.77;4.10;;;20.30;57.50;;;;;;5001790;28;20053;-47
2023/10/09 07:47:45;;;;;;;10.30;4.78;;;20.20;57.50;;;;;;5001402;28;20076;-46
2023/10/09 07:50:20;;;;;;;7.40;4.32;;;20.30;57.80;;;;;;5001931;28;20045;-47
2023/10/09 07:52:49;;;;;;;8.98;4.18;;;20.20;57.80;;;;;;5002485;28;20062;-47
2023/10/09 07:55:29;;;;;;;11.57;4.25;;;20.20;57.70;;;;;;5002719;28;20073;-46
2023/10/09 07:57:56;;;;;;;8.35;4.90;;;20.20;57.60;;;;;;5002493;28;20060;-46
2023/10/09 08:00:49;;;;;;;13.52;4.90;;;20.30;57.60;;;;;;5001691;28;20085;-46
2023/10/09 08:03:23;;;;;;;9.45;4.63;;;20.30;57.70;;;;;;5001178;28;20053;-45
2023/10/09 08:05:53;;;;;;;9.88;4.68;;;20.30;57.70;;;;;;5001375;28;20049;-48
2023/10/09 08:08:44;;;;;;;8.52;4.65;;;20.30;57.70;;;;;;5002654;28;20060;-47
2023/10/09 08:14:20;;;;;;;8.70;4.47;;;20.40;57.70;;;;;;5008584;28;20065;-45
2023/10/09 08:16:48;;;;;;;10.65;4.78;;;20.50;57.70;;;;;;5001598;28;20422;-46
2023/10/09 08:22:17;;;;;;;8.80;4.68;;;20.60;57.80;;;;;;5001004;28;20053;-49
2023/10/09 08:24:52;;;;;;;12.15;4.95;;;20.60;57.60;;;;;;5002365;28;20053;-47
2023/10/09 08:27:46;;;;;;;11.05;5.00;;;20.70;57.70;;;;;;5001991;28;20501;-48
2023/10/09 08:30:28;;;;;;;8.20;4.15;;;20.70;57.70;;;;;;5001597;28;20065;-48
2023/10/09 08:33:02;;;;;;;9.55;4.68;;;20.80;57.70;;;;;;5001359;28;20058;-46
2023/10/09 08:35:29;;;;;;;7.28;4.47;;;20.80;57.60;;;;;;5000103;28;20053;-49
2023/10/09 08:37:58;;;;;;;11.82;5.35;;;20.90;57.70;;;;;;5001636;28;20053;-48
2023/10/09 08:40:33;;;;;;;10.80;4.82;;;20.90;57.80;;;;;;5001339;28;20061;-46
2023/10/09 08:43:09;;;;;;;10.55;4.72;;;21.00;57.00;;;;;;4999846;28;20050;-44
2023/10/09 08:45:39;;;;;;;10.48;5.32;;;21.00;56.80;;;;;;5000151;28;20064;-46
2023/10/09 08:48:15;;;;;;;11.70;4.65;;;21.00;56.50;;;;;;5000701;28;20050;-48
2023/10/09 08:50:43;;;;;;;10.43;4.95;;;21.10;56.80;;;;;;5001427;28;20054;-44
2023/10/09 08:53:11;;;;;;;10.93;4.78;;;21.10;56.90;;;;;;5001963;28;20057;-47
2023/10/09 08:55:39;;;;;;;8.73;4.65;;;21.20;56.70;;;;;;5000703;28;20053;-45
2023/10/09 08:58:13;;;;;;;10.23;4.97;;;21.20;56.50;;;;;;5001485;28;20502;-45
2023/10/09 09:00:43;;;;;;;11.88;5.43;;;21.20;56.20;;;;;;5001232;28;20057;-47
2023/10/09 09:03:12;;;;;;;9.40;4.28;;;21.30;56.10;;;;;;5000098;28;20053;-48
2023/10/09 09:05:39;;;;;;;9.20;4.60;;;21.30;56.10;;;;;;5002684;28;20057;-44
2023/10/09 09:08:24;;;;;;;12.23;5.10;;;21.30;56.20;;;;;;5005695;28;20061;-48
2023/10/09 09:11:05;;;;;;;16.45;4.95;;;21.40;56.00;;;;;;5005069;28;20107;-45
2023/10/09 09:13:34;;;;;;;9.43;4.80;;;21.40;55.60;;;;;;5004802;28;20054;-47
2023/10/09 09:16:02;;;;;;;11.70;5.53;;;21.40;55.50;;;;;;5004259;28;20049;-44
2023/10/09 09:18:39;;;;;;;12.70;5.55;;;21.40;55.30;;;;;;5004641;28;20490;-48
2023/10/09 09:21:22;;;;;;;13.27;5.68;;;21.50;55.00;;;;;;5004684;28;20532;-43
2023/10/09 09:23:58;;;;;;;9.02;5.53;;;21.50;55.00;;;;;;5005333;28;20054;-45
2023/10/09 09:26:44;;;;;;;13.85;6.32;;;21.50;54.90;;;;;;5006189;28;20085;-48
2023/10/09 09:29:13;;;;;;;13.38;6.10;;;21.50;54.80;;;;;;5016865;28;20170;-50
2023/10/09 09:31:53;;;;;;;14.60;5.82;;;21.50;54.60;;;;;;5024183;28;20432;-47
2023/10/09 09:34:25;;;;;;;13.48;5.63;;;21.50;54.60;;;;;;5023998;28;20421;-47
2023/10/09 09:36:54;;;;;;;12.70;5.55;;;21.50;54.90;;;;;;5024114;28;20057;-45
2023/10/09 09:39:27;;;;;;;10.85;5.18;;;21.50;55.10;;;;;;5025216;28;20050;-47
2023/10/09 09:41:57;;;;;;;11.27;5.40;;;21.50;55.20;;;;;;5024694;28;20049;-46
2023/10/09 09:44:30;;;;;;;12.15;5.65;;;21.50;55.20;;;;;;5025236;28;20401;-50
2023/10/09 09:47:00;;;;;;;21.05;11.38;;;21.60;55.10;;;;;;5023730;28;20060;-49
2023/10/09 09:49:32;;;;;;;14.40;6.40;;;21.60;55.20;;;;;;5024301;28;20057;-45
2023/10/09 09:52:09;;;;;;;10.60;5.35;;;21.70;55.40;;;;;;5024225;28;20060;-43
2023/10/09 09:54:38;;;;;;;12.38;5.88;;;21.70;55.20;;;;;;5023767;28;20057;-48
2023/10/09 09:57:10;;;;;;;13.27;5.68;;;21.80;55.30;;;;;;5024810;28;20068;-46
2023/10/09 09:59:49;;;;;;;9.90;4.82;;;21.90;55.50;;;;;;5024474;28;20410;-47
2023/10/09 10:02:23;;;;;;;10.38;5.65;;;21.90;55.40;;;;;;5023995;28;20119;-45
2023/10/09 10:04:57;;;;;;;13.40;5.18;;;22.00;55.50;;;;;;5023403;28;20418;-48
2023/10/09 10:07:29;;;;;;;13.32;4.60;;;22.10;55.60;;;;;;5008354;28;20062;-50
2023/10/09 10:09:57;;;;;;;11.00;4.43;;;22.10;55.60;;;;;;5004418;28;20069;-47
2023/10/09 10:13:00;;;;;;;8.63;4.28;;;22.20;55.50;;;;;;5004402;28;20490;-48
2023/10/09 10:15:59;;;;;;;10.55;4.30;;;22.20;55.40;;;;;;4996090;28;20102;-47
2023/10/09 10:18:31;;;;;;;10.80;4.88;;;22.30;55.50;;;;;;5003889;28;20065;-49
2023/10/09 10:21:16;;;;;;;11.52;4.50;;;22.30;53.90;;;;;;5003912;28;20057;-48
2023/10/09 10:23:47;;;;;;;11.60;5.07;;;22.40;53.30;;;;;;4998678;28;20060;-47
2023/10/09 10:26:25;;;;;;;7.60;4.10;;;22.40;53.20;;;;;;5003972;28;20057;-50
2023/10/09 10:29:23;;;;;;;15.18;4.85;;;22.40;52.70;;;;;;5003956;28;20410;-46
2023/10/09 10:32:00;;;;;;;7.60;4.00;;;22.50;52.20;;;;;;4998261;28;20068;-46
2023/10/09 10:34:47;;;;;;;10.75;5.03;;;22.50;51.70;;;;;;4995280;28;20069;-45
2023/10/09 10:37:16;;;;;;;7.97;4.55;;;22.50;51.70;;;;;;5003144;28;20065;-46
2023/10/09 10:39:51;;;;;;;9.98;4.45;;;22.50;51.00;;;;;;5003989;28;20057;-47
2023/10/09 10:42:33;;;;;;;11.93;4.53;;;22.50;50.80;;;;;;5003950;28;20815;-47
2023/10/09 10:45:02;;;;;;;9.43;4.70;;;22.50;51.40;;;;;;5002928;28;20045;-49
2023/10/09 10:47:33;;;;;;;11.40;4.85;;;22.60;51.40;;;;;;5003757;28;20064;-50
2023/10/09 10:50:11;;;;;;;9.30;5.05;;;22.60;51.40;;;;;;5003488;28;20054;-48
2023/10/09 10:52:42;;;;;;;14.65;4.93;;;22.70;51.20;;;;;;4995075;28;20474;-47
2023/10/09 10:58:00;;;;;;;9.70;4.40;;;22.80;50.80;;;;;;5001322;28;20049;-48
2023/10/09 11:03:29;;;;;;;9.05;4.32;;;22.90;51.00;;;;;;5008470;28;20061;-47
2023/10/09 11:06:00;;;;;;;7.97;4.80;;;23.00;50.80;;;;;;4988634;28;20061;-47
2023/10/09 11:08:33;;;;;;;9.52;4.47;;;23.10;51.20;;;;;;5024450;28;20060;-51
2023/10/09 11:11:19;;;;;;;10.05;5.03;;;23.10;51.10;;;;;;5022812;28;20046;-46
2023/10/09 11:13:56;;;;;;;9.70;5.07;;;23.20;50.70;;;;;;5017286;28;20461;-51
2023/10/09 11:16:39;;;;;;;11.68;5.00;;;23.30;50.00;;;;;;5022595;28;20061;-45
2023/10/09 11:19:22;;;;;;;7.70;4.57;;;23.40;50.00;;;;;;5021741;28;20049;-49
2023/10/09 11:21:58;;;;;;;10.88;4.60;;;23.40;49.10;;;;;;5021903;28;20405;-47
2023/10/09 11:24:33;;;;;;;9.05;4.95;;;23.50;48.10;;;;;;5022261;28;20418;-48
2023/10/09 11:27:05;;;;;;;6.43;3.70;;;23.60;48.00;;;;;;5022001;28;20057;-48
2023/10/09 11:32:18;;;;;;;9.23;4.40;;;23.70;47.90;;;;;;5021599;28;20068;-48
2023/10/09 11:34:51;;;;;;;11.65;5.35;;;23.70;47.00;;;;;;5021192;28;20386;-51
2023/10/09 11:37:38;;;;;;;9.50;5.07;;;23.80;47.60;;;;;;5022145;28;20053;-45
2023/10/09 11:40:23;;;;;;;9.88;4.95;;;23.80;47.40;;;;;;5022057;28;20057;-47
2023/10/09 11:42:50;;;;;;;8.75;4.80;;;23.80;47.70;;;;;;5021874;28;20057;-46
2023/10/09 11:45:24;;;;;;;11.85;4.93;;;23.90;47.60;;;;;;5021739;28;20049;-45
2023/10/09 11:47:58;;;;;;;10.75;4.63;;;24.00;47.10;;;;;;5022390;28;20060;-50
2023/10/09 11:50:43;;;;;;;9.13;4.80;;;24.00;47.60;;;;;;5021605;28;20053;-47
2023/10/09 11:53:33;;;;;;;7.05;4.20;;;24.10;47.70;;;;;;5021331;28;20056;-48
2023/10/09 11:56:01;;;;;;;8.55;4.72;;;24.10;47.90;;;;;;5021616;28;20053;-45
2023/10/09 11:58:29;;;;;;;13.65;5.30;;;24.10;47.70;;;;;;5022294;28;20049;-47
2023/10/09 12:00:59;;;;;;;11.23;4.90;;;24.10;47.70;;;;;;5021622;28;20050;-44
2023/10/09 12:03:30;;;;;;;10.32;4.72;;;24.20;47.60;;;;;;5021359;28;20049;-48
2023/10/09 12:06:04;;;;;;;9.98;4.78;;;24.20;47.70;;;;;;5018499;28;20046;-45
2023/10/09 12:08:31;;;;;;;11.88;4.95;;;24.20;48.00;;;;;;5002874;28;20060;-47
2023/10/09 12:11:08;;;;;;;10.32;5.05;;;24.30;47.70;;;;;;5002590;28;20054;-50
2023/10/09 12:13:35;;;;;;;11.60;5.15;;;24.30;47.40;;;;;;5001812;28;20050;-50
2023/10/09 12:16:07;;;;;;;9.50;5.00;;;24.30;47.30;;;;;;5000949;28;20417;-44
2023/10/09 12:18:36;;;;;;;10.05;5.63;;;24.30;47.40;;;;;;4994779;28;20066;-43
2023/10/09 12:21:04;;;;;;;10.38;5.40;;;24.20;47.90;;;;;;5001838;28;20049;-46
2023/10/09 12:23:35;;;;;;;10.90;5.25;;;24.20;48.00;;;;;;5002400;28;20057;-49
2023/10/09 12:26:04;;;;;;;13.73;5.60;;;24.20;47.90;;;;;;5002060;28;20045;-51
2023/10/09 12:28:32;;;;;;;11.13;5.13;;;24.20;48.00;;;;;;5002123;28;20874;-45
2023/10/09 12:31:01;;;;;;;9.90;4.85;;;24.20;48.20;;;;;;5001389;28;20129;-47
2023/10/09 12:33:31;;;;;;;11.57;4.72;;;24.20;48.60;;;;;;5001051;28;20080;-48
2023/10/09 12:35:59;;;;;;;11.13;5.00;;;24.20;48.20;;;;;;5002013;28;20054;-50
2023/10/09 12:38:31;;;;;;;10.10;5.53;;;24.20;48.50;;;;;;4994322;28;20058;-50
2023/10/09 12:41:18;;;;;;;11.57;5.07;;;24.20;48.40;;;;;;5002163;28;20417;-49
2023/10/09 12:43:45;;;;;;;14.38;5.88;;;24.20;47.80;;;;;;4996130;28;20080;-46
2023/10/09 12:46:16;;;;;;;8.32;4.50;;;24.20;47.30;;;;;;5001005;28;20478;-47
2023/10/09 12:48:46;;;;;;;13.70;5.80;;;24.30;47.50;;;;;;5001402;28;20053;-47
2023/10/09 12:51:16;;;;;;;9.70;5.10;;;24.30;47.30;;;;;;5001764;28;20498;-45
2023/10/09 12:53:43;;;;;;;12.25;5.85;;;24.30;47.30;;;;;;5002140;28;20058;-46
2023/10/09 12:56:12;;;;;;;15.98;5.15;;;24.30;47.20;;;;;;5001903;28;20521;-44
2023/10/09 12:58:40;;;;;;;8.98;4.78;;;24.30;48.00;;;;;;5001235;28;20540;-43
2023/10/09 13:01:11;;;;;;;9.63;4.78;;;24.30;48.40;;;;;;5000519;28;20053;-48
2023/10/09 13:03:38;;;;;;;14.60;5.03;;;24.30;47.90;;;;;;5001806;28;20058;-45
2023/10/09 13:06:10;;;;;;;9.85;5.13;;;24.30;47.40;;;;;;5000882;28;20073;-46
2023/10/09 13:08:40;;;;;;;14.18;5.28;;;24.30;47.60;;;;;;5001494;28;20062;-48
2023/10/09 13:11:11;;;;;;;10.20;5.55;;;24.30;47.70;;;;;;5001723;28;20064;-45
2023/10/09 13:13:41;;;;;;;9.45;5.18;;;24.30;47.80;;;;;;5001601;28;20428;-49
2023/10/09 13:16:11;;;;;;;11.07;5.15;;;24.30;47.70;;;;;;5000584;28;20049;-43
2023/10/09 13:18:40;;;;;;;12.38;5.32;;;24.30;47.80;;;;;;5001048;28;20567;-44
2023/10/09 13:21:08;;;;;;;14.88;6.28;;;24.30;47.80;;;;;;5001424;28;20069;-43
2023/10/09 13:23:39;;;;;;;11.63;5.28;;;24.30;47.50;;;;;;5001724;28;20064;-45
2023/10/09 13:26:17;;;;;;;11.35;5.50;;;24.30;47.80;;;;;;5000759;28;20057;-43
2023/10/09 13:28:48;;;;;;;11.80;5.38;;;24.20;47.70;;;;;;5000810;28;20069;-46
2023/10/09 13:31:15;;;;;;;14.68;5.28;;;24.20;47.80;;;;;;5000606;28;20050;-49
2023/10/09 13:33:43;;;;;;;11.23;4.50;;;24.20;47.50;;;;;;5000699;28;20053;-45
2023/10/09 13:36:19;;;;;;;11.10;4.60;;;24.20;48.00;;;;;;5001705;28;20061;-45
2023/10/09 13:38:46;;;;;;;13.30;5.28;;;24.20;48.10;;;;;;5001659;28;20065;-45
2023/10/09 13:41:14;;;;;;;15.82;5.72;;;24.10;47.90;;;;;;5001525;28;20057;-44
2023/10/09 13:43:43;;;;;;;11.80;5.43;;;24.10;47.90;;;;;;5001239;28;20061;-43
2023/10/09 13:46:17;;;;;;;12.35;5.22;;;24.10;48.10;;;;;;5000424;28;20474;-43
2023/10/09 13:48:45;;;;;;;10.90;5.15;;;24.10;48.20;;;;;;5000779;28;20498;-45
2023/10/09 13:51:17;;;;;;;10.93;5.05;;;24.10;48.40;;;;;;5001176;28;20058;-47
2023/10/09 13:53:47;;;;;;;18.85;5.47;;;24.10;48.70;;;;;;5004824;28;20068;-49
2023/10/09 13:56:18;;;;;;;10.93;4.70;;;24.10;48.50;;;;;;5005021;28;20116;-48
2023/10/09 13:58:47;;;;;;;9.10;3.95;;;24.00;47.70;;;;;;5005332;28;20406;-46
2023/10/09 14:01:26;;;;;;;13.88;4.72;;;24.00;47.60;;;;;;5004152;28;20054;-45
2023/10/09 14:03:55;;;;;;;11.15;4.47;;;24.00;47.60;;;;;;5004853;28;20054;-48
2023/10/09 14:06:30;;;;;;;7.88;4.30;;;23.90;47.20;;;;;;5004295;28;20050;-46
2023/10/09 14:08:58;;;;;;;10.52;4.68;;;23.90;47.20;;;;;;5005527;28;20058;-46
2023/10/09 14:11:26;;;;;;;9.40;5.10;;;23.90;47.60;;;;;;5005122;28;20064;-48